Indio, California
Current Conditions -  °F | °C
As of 6:52 PM on Tuesday 25 Nov 2014 (Local Time) from KTRM Reporting Station
Clear Clear  
Wind Chill: 48°   Ceiling: Unl
Heat Index: 48°   Visibility: 10mi
Dew Point: 31°   Wind: 3mph
Humidity: 52%   Direction: 340°NNW
Pressure: 30.31"   Gusts: NA
Location:  33.72°N, 116.21°W
Report Text: KTRM 260252Z AUTO 34003KT 10SM CLR 09/M01 A3031 RMK AO2 SLP263 T00891006 53003 TSNO
Loading
Personal Weather Stations






























Interactive Weather Map New forecast layout! Learn more

10-Day Weather Forecast

Advertisements
Track Severe Weather on mobile